sensor_id;sensor_type;location;lat;lon;timestamp;P1;durP1;ratioP1;P2;durP2;ratioP2
12267;SDS011;6196;48.398;11.736;2023-12-14T00:01:17;6.37;;;5.70;;
12267;SDS011;6196;48.398;11.736;2023-12-14T00:03:44;5.67;;;5.17;;
12267;SDS011;6196;48.398;11.736;2023-12-14T00:10:17;6.27;;;5.37;;
12267;SDS011;6196;48.398;11.736;2023-12-14T00:13:08;6.40;;;5.80;;
12267;SDS011;6196;48.398;11.736;2023-12-14T00:15:35;6.20;;;5.60;;
12267;SDS011;6196;48.398;11.736;2023-12-14T00:18:02;6.83;;;6.23;;
12267;SDS011;6196;48.398;11.736;2023-12-14T00:20:29;7.03;;;6.33;;
12267;SDS011;6196;48.398;11.736;2023-12-14T00:22:56;6.70;;;6.10;;
12267;SDS011;6196;48.398;11.736;2023-12-14T00:25:23;6.80;;;6.20;;
12267;SDS011;6196;48.398;11.736;2023-12-14T00:27:50;6.83;;;6.23;;
12267;SDS011;6196;48.398;11.736;2023-12-14T00:30:16;6.70;;;6.10;;
12267;SDS011;6196;48.398;11.736;2023-12-14T00:32:43;7.83;;;6.43;;
12267;SDS011;6196;48.398;11.736;2023-12-14T00:35:11;6.00;;;5.50;;
12267;SDS011;6196;48.398;11.736;2023-12-14T00:37:38;6.90;;;6.20;;
12267;SDS011;6196;48.398;11.736;2023-12-14T00:40:05;5.20;;;4.73;;
12267;SDS011;6196;48.398;11.736;2023-12-14T00:42:33;4.70;;;4.20;;
12267;SDS011;6196;48.398;11.736;2023-12-14T00:45:00;4.67;;;4.27;;
12267;SDS011;6196;48.398;11.736;2023-12-14T00:47:27;5.40;;;4.90;;
12267;SDS011;6196;48.398;11.736;2023-12-14T00:49:54;4.70;;;4.30;;
12267;SDS011;6196;48.398;11.736;2023-12-14T00:52:21;5.00;;;4.30;;
12267;SDS011;6196;48.398;11.736;2023-12-14T00:54:48;5.40;;;4.90;;
12267;SDS011;6196;48.398;11.736;2023-12-14T00:57:15;4.40;;;4.03;;
12267;SDS011;6196;48.398;11.736;2023-12-14T00:59:42;4.77;;;4.37;;
12267;SDS011;6196;48.398;11.736;2023-12-14T01:02:09;4.70;;;4.30;;
12267;SDS011;6196;48.398;11.736;2023-12-14T01:04:36;5.20;;;4.70;;
12267;SDS011;6196;48.398;11.736;2023-12-14T01:07:03;5.70;;;5.10;;
12267;SDS011;6196;48.398;11.736;2023-12-14T01:09:30;5.27;;;4.77;;
12267;SDS011;6196;48.398;11.736;2023-12-14T01:11:57;4.50;;;4.10;;
12267;SDS011;6196;48.398;11.736;2023-12-14T01:14:24;5.00;;;4.60;;
12267;SDS011;6196;48.398;11.736;2023-12-14T01:16:51;4.60;;;4.20;;
12267;SDS011;6196;48.398;11.736;2023-12-14T01:19:18;5.03;;;4.23;;
12267;SDS011;6196;48.398;11.736;2023-12-14T01:21:45;4.60;;;4.13;;
12267;SDS011;6196;48.398;11.736;2023-12-14T01:24:12;4.87;;;4.40;;
12267;SDS011;6196;48.398;11.736;2023-12-14T01:30:27;5.20;;;4.70;;
12267;SDS011;6196;48.398;11.736;2023-12-14T01:32:54;5.87;;;5.30;;
12267;SDS011;6196;48.398;11.736;2023-12-14T01:35:21;5.93;;;5.37;;
12267;SDS011;6196;48.398;11.736;2023-12-14T01:37:48;6.10;;;5.57;;
12267;SDS011;6196;48.398;11.736;2023-12-14T01:40:16;6.17;;;5.67;;
12267;SDS011;6196;48.398;11.736;2023-12-14T01:42:46;6.70;;;6.10;;
12267;SDS011;6196;48.398;11.736;2023-12-14T01:45:13;7.20;;;6.57;;
12267;SDS011;6196;48.398;11.736;2023-12-14T01:47:43;6.60;;;6.00;;
12267;SDS011;6196;48.398;11.736;2023-12-14T01:50:10;6.53;;;5.93;;
12267;SDS011;6196;48.398;11.736;2023-12-14T01:52:37;7.23;;;6.53;;
12267;SDS011;6196;48.398;11.736;2023-12-14T01:55:04;7.87;;;7.17;;
12267;SDS011;6196;48.398;11.736;2023-12-14T01:57:31;7.47;;;6.60;;
12267;SDS011;6196;48.398;11.736;2023-12-14T01:59:58;6.97;;;6.23;;
12267;SDS011;6196;48.398;11.736;2023-12-14T02:02:25;7.67;;;6.90;;
12267;SDS011;6196;48.398;11.736;2023-12-14T02:04:52;7.93;;;6.93;;
12267;SDS011;6196;48.398;11.736;2023-12-14T02:07:19;8.13;;;7.33;;
12267;SDS011;6196;48.398;11.736;2023-12-14T02:09:46;9.27;;;7.33;;
12267;SDS011;6196;48.398;11.736;2023-12-14T02:12:13;7.57;;;6.87;;
12267;SDS011;6196;48.398;11.736;2023-12-14T02:14:40;7.67;;;6.80;;
12267;SDS011;6196;48.398;11.736;2023-12-14T02:17:07;7.90;;;7.20;;
12267;SDS011;6196;48.398;11.736;2023-12-14T02:19:34;7.70;;;6.93;;
12267;SDS011;6196;48.398;11.736;2023-12-14T02:22:01;7.33;;;6.60;;
12267;SDS011;6196;48.398;11.736;2023-12-14T02:24:27;8.07;;;7.27;;
12267;SDS011;6196;48.398;11.736;2023-12-14T02:26:55;8.43;;;6.70;;
12267;SDS011;6196;48.398;11.736;2023-12-14T02:29:29;6.47;;;5.87;;
12267;SDS011;6196;48.398;11.736;2023-12-14T02:31:57;7.17;;;6.47;;
12267;SDS011;6196;48.398;11.736;2023-12-14T02:34:24;7.10;;;6.40;;
12267;SDS011;6196;48.398;11.736;2023-12-14T02:36:53;7.30;;;6.60;;
12267;SDS011;6196;48.398;11.736;2023-12-14T02:39:20;8.37;;;6.43;;
12267;SDS011;6196;48.398;11.736;2023-12-14T02:41:47;6.80;;;6.20;;
12267;SDS011;6196;48.398;11.736;2023-12-14T02:44:14;6.73;;;6.13;;
12267;SDS011;6196;48.398;11.736;2023-12-14T02:46:41;7.80;;;7.00;;
12267;SDS011;6196;48.398;11.736;2023-12-14T02:49:08;7.73;;;7.03;;
12267;SDS011;6196;48.398;11.736;2023-12-14T02:51:35;7.30;;;6.60;;
12267;SDS011;6196;48.398;11.736;2023-12-14T02:54:02;7.30;;;6.60;;
12267;SDS011;6196;48.398;11.736;2023-12-14T02:56:29;7.93;;;7.17;;
12267;SDS011;6196;48.398;11.736;2023-12-14T02:58:56;7.77;;;7.00;;
12267;SDS011;6196;48.398;11.736;2023-12-14T03:01:23;8.17;;;7.37;;
12267;SDS011;6196;48.398;11.736;2023-12-14T03:03:50;7.57;;;6.87;;
12267;SDS011;6196;48.398;11.736;2023-12-14T03:06:17;8.50;;;7.50;;
12267;SDS011;6196;48.398;11.736;2023-12-14T03:08:44;7.77;;;7.07;;
12267;SDS011;6196;48.398;11.736;2023-12-14T03:11:20;8.80;;;7.63;;
12267;SDS011;6196;48.398;11.736;2023-12-14T03:13:51;8.60;;;7.77;;
12267;SDS011;6196;48.398;11.736;2023-12-14T03:16:18;9.00;;;7.50;;
12267;SDS011;6196;48.398;11.736;2023-12-14T03:18:45;8.90;;;7.87;;
12267;SDS011;6196;48.398;11.736;2023-12-14T03:21:12;9.63;;;7.70;;
12267;SDS011;6196;48.398;11.736;2023-12-14T03:23:39;7.83;;;6.97;;
12267;SDS011;6196;48.398;11.736;2023-12-14T03:26:06;9.60;;;8.10;;
12267;SDS011;6196;48.398;11.736;2023-12-14T03:28:33;9.43;;;8.33;;
12267;SDS011;6196;48.398;11.736;2023-12-14T03:31:00;8.67;;;7.70;;
12267;SDS011;6196;48.398;11.736;2023-12-14T03:33:27;8.43;;;7.63;;
12267;SDS011;6196;48.398;11.736;2023-12-14T03:35:54;10.17;;;7.97;;
12267;SDS011;6196;48.398;11.736;2023-12-14T03:38:22;9.03;;;8.13;;
12267;SDS011;6196;48.398;11.736;2023-12-14T03:40:49;8.90;;;8.03;;
12267;SDS011;6196;48.398;11.736;2023-12-14T03:43:16;10.43;;;8.53;;
12267;SDS011;6196;48.398;11.736;2023-12-14T03:45:43;8.37;;;7.57;;
12267;SDS011;6196;48.398;11.736;2023-12-14T03:48:10;8.83;;;7.93;;
12267;SDS011;6196;48.398;11.736;2023-12-14T03:50:37;9.67;;;8.67;;
12267;SDS011;6196;48.398;11.736;2023-12-14T03:53:04;9.63;;;8.50;;
12267;SDS011;6196;48.398;11.736;2023-12-14T03:55:31;9.80;;;8.80;;
12267;SDS011;6196;48.398;11.736;2023-12-14T03:57:59;9.93;;;8.90;;
12267;SDS011;6196;48.398;11.736;2023-12-14T04:00:27;9.63;;;8.63;;
12267;SDS011;6196;48.398;11.736;2023-12-14T04:02:53;9.80;;;8.80;;
12267;SDS011;6196;48.398;11.736;2023-12-14T04:05:20;11.00;;;9.53;;
12267;SDS011;6196;48.398;11.736;2023-12-14T04:07:48;11.40;;;10.13;;
12267;SDS011;6196;48.398;11.736;2023-12-14T04:10:15;11.03;;;9.83;;
12267;SDS011;6196;48.398;11.736;2023-12-14T04:12:42;10.97;;;9.87;;
12267;SDS011;6196;48.398;11.736;2023-12-14T04:15:09;11.37;;;10.17;;
12267;SDS011;6196;48.398;11.736;2023-12-14T04:17:36;12.87;;;10.13;;
12267;SDS011;6196;48.398;11.736;2023-12-14T04:20:04;14.57;;;10.77;;
12267;SDS011;6196;48.398;11.736;2023-12-14T04:22:32;11.90;;;10.43;;
12267;SDS011;6196;48.398;11.736;2023-12-14T04:25:00;12.27;;;10.50;;
12267;SDS011;6196;48.398;11.736;2023-12-14T04:27:27;11.63;;;10.43;;
12267;SDS011;6196;48.398;11.736;2023-12-14T04:29:56;12.60;;;10.80;;
12267;SDS011;6196;48.398;11.736;2023-12-14T04:32:23;12.10;;;10.80;;
12267;SDS011;6196;48.398;11.736;2023-12-14T04:34:50;12.50;;;11.20;;
12267;SDS011;6196;48.398;11.736;2023-12-14T04:37:16;13.90;;;10.73;;
12267;SDS011;6196;48.398;11.736;2023-12-14T04:39:43;12.77;;;11.47;;
12267;SDS011;6196;48.398;11.736;2023-12-14T04:42:10;13.00;;;11.13;;
12267;SDS011;6196;48.398;11.736;2023-12-14T04:44:37;11.70;;;10.50;;
12267;SDS011;6196;48.398;11.736;2023-12-14T04:47:05;11.93;;;10.73;;
12267;SDS011;6196;48.398;11.736;2023-12-14T04:49:34;12.73;;;11.00;;
12267;SDS011;6196;48.398;11.736;2023-12-14T04:52:01;12.73;;;10.87;;
12267;SDS011;6196;48.398;11.736;2023-12-14T04:54:28;13.13;;;11.73;;
12267;SDS011;6196;48.398;11.736;2023-12-14T04:56:55;13.43;;;11.53;;
12267;SDS011;6196;48.398;11.736;2023-12-14T04:59:22;11.83;;;10.63;;
12267;SDS011;6196;48.398;11.736;2023-12-14T05:01:50;12.53;;;11.13;;
12267;SDS011;6196;48.398;11.736;2023-12-14T05:04:17;13.53;;;12.10;;
12267;SDS011;6196;48.398;11.736;2023-12-14T05:06:43;13.77;;;12.37;;
12267;SDS011;6196;48.398;11.736;2023-12-14T05:09:10;12.73;;;10.60;;
12267;SDS011;6196;48.398;11.736;2023-12-14T05:11:39;12.63;;;11.33;;
12267;SDS011;6196;48.398;11.736;2023-12-14T05:14:06;14.03;;;11.17;;
12267;SDS011;6196;48.398;11.736;2023-12-14T05:16:33;12.83;;;11.53;;
12267;SDS011;6196;48.398;11.736;2023-12-14T05:19:00;12.70;;;11.40;;
12267;SDS011;6196;48.398;11.736;2023-12-14T05:21:27;12.97;;;11.67;;
12267;SDS011;6196;48.398;11.736;2023-12-14T05:23:54;13.27;;;11.73;;
12267;SDS011;6196;48.398;11.736;2023-12-14T05:26:21;12.90;;;11.30;;
12267;SDS011;6196;48.398;11.736;2023-12-14T05:28:48;12.90;;;11.30;;
12267;SDS011;6196;48.398;11.736;2023-12-14T05:31:15;14.43;;;12.40;;
12267;SDS011;6196;48.398;11.736;2023-12-14T05:33:42;14.33;;;11.67;;
12267;SDS011;6196;48.398;11.736;2023-12-14T05:36:09;12.60;;;11.30;;
12267;SDS011;6196;48.398;11.736;2023-12-14T05:38:40;12.37;;;11.07;;
12267;SDS011;6196;48.398;11.736;2023-12-14T05:41:08;11.50;;;10.30;;
12267;SDS011;6196;48.398;11.736;2023-12-14T05:43:36;12.90;;;10.90;;
12267;SDS011;6196;48.398;11.736;2023-12-14T05:46:03;14.23;;;11.70;;
12267;SDS011;6196;48.398;11.736;2023-12-14T05:48:30;12.90;;;11.60;;
12267;SDS011;6196;48.398;11.736;2023-12-14T05:50:57;11.30;;;10.03;;
12267;SDS011;6196;48.398;11.736;2023-12-14T05:53:26;11.73;;;10.53;;
12267;SDS011;6196;48.398;11.736;2023-12-14T05:55:53;12.03;;;10.73;;
12267;SDS011;6196;48.398;11.736;2023-12-14T05:58:20;13.07;;;11.70;;
12267;SDS011;6196;48.398;11.736;2023-12-14T06:00:47;12.33;;;11.03;;
12267;SDS011;6196;48.398;11.736;2023-12-14T06:03:14;13.27;;;11.10;;
12267;SDS011;6196;48.398;11.736;2023-12-14T06:05:41;11.93;;;10.73;;
12267;SDS011;6196;48.398;11.736;2023-12-14T06:08:08;13.93;;;11.37;;
12267;SDS011;6196;48.398;11.736;2023-12-14T06:10:35;13.00;;;11.07;;
12267;SDS011;6196;48.398;11.736;2023-12-14T06:13:03;12.00;;;10.53;;
12267;SDS011;6196;48.398;11.736;2023-12-14T06:15:30;12.43;;;9.97;;
12267;SDS011;6196;48.398;11.736;2023-12-14T06:17:56;13.27;;;11.90;;
12267;SDS011;6196;48.398;11.736;2023-12-14T06:20:24;12.23;;;10.53;;
12267;SDS011;6196;48.398;11.736;2023-12-14T06:22:51;13.20;;;10.30;;
12267;SDS011;6196;48.398;11.736;2023-12-14T06:25:18;11.93;;;10.63;;
12267;SDS011;6196;48.398;11.736;2023-12-14T06:27:45;11.57;;;9.77;;
12267;SDS011;6196;48.398;11.736;2023-12-14T06:30:12;11.17;;;9.90;;
12267;SDS011;6196;48.398;11.736;2023-12-14T06:32:39;11.27;;;9.80;;
12267;SDS011;6196;48.398;11.736;2023-12-14T06:35:07;12.00;;;10.67;;
12267;SDS011;6196;48.398;11.736;2023-12-14T06:37:37;11.57;;;9.23;;
12267;SDS011;6196;48.398;11.736;2023-12-14T06:40:04;12.20;;;10.10;;
12267;SDS011;6196;48.398;11.736;2023-12-14T06:42:32;12.47;;;10.33;;
12267;SDS011;6196;48.398;11.736;2023-12-14T06:45:01;11.23;;;10.13;;
12267;SDS011;6196;48.398;11.736;2023-12-14T06:47:29;10.93;;;9.83;;
12267;SDS011;6196;48.398;11.736;2023-12-14T06:49:56;11.00;;;9.80;;
12267;SDS011;6196;48.398;11.736;2023-12-14T06:52:24;12.90;;;9.97;;
12267;SDS011;6196;48.398;11.736;2023-12-14T06:54:51;11.13;;;9.80;;
12267;SDS011;6196;48.398;11.736;2023-12-14T06:57:18;11.83;;;10.63;;
12267;SDS011;6196;48.398;11.736;2023-12-14T06:59:44;10.87;;;9.77;;
12267;SDS011;6196;48.398;11.736;2023-12-14T07:02:11;11.53;;;10.20;;
12267;SDS011;6196;48.398;11.736;2023-12-14T07:04:38;11.93;;;10.60;;
12267;SDS011;6196;48.398;11.736;2023-12-14T07:07:05;11.40;;;10.20;;
12267;SDS011;6196;48.398;11.736;2023-12-14T07:09:32;11.17;;;9.73;;
12267;SDS011;6196;48.398;11.736;2023-12-14T07:12:01;10.47;;;9.10;;
12267;SDS011;6196;48.398;11.736;2023-12-14T07:14:29;10.93;;;9.50;;
12267;SDS011;6196;48.398;11.736;2023-12-14T07:16:56;11.27;;;9.67;;
12267;SDS011;6196;48.398;11.736;2023-12-14T07:19:23;11.77;;;9.80;;
12267;SDS011;6196;48.398;11.736;2023-12-14T07:21:50;10.20;;;9.03;;
12267;SDS011;6196;48.398;11.736;2023-12-14T07:24:17;10.97;;;9.77;;
12267;SDS011;6196;48.398;11.736;2023-12-14T07:26:43;9.47;;;8.17;;
12267;SDS011;6196;48.398;11.736;2023-12-14T07:29:10;10.27;;;9.03;;
12267;SDS011;6196;48.398;11.736;2023-12-14T07:31:37;10.77;;;8.57;;
12267;SDS011;6196;48.398;11.736;2023-12-14T07:34:04;10.70;;;9.50;;
12267;SDS011;6196;48.398;11.736;2023-12-14T07:36:31;9.63;;;8.57;;
12267;SDS011;6196;48.398;11.736;2023-12-14T07:38:58;10.03;;;8.97;;
12267;SDS011;6196;48.398;11.736;2023-12-14T07:41:27;9.67;;;8.67;;
12267;SDS011;6196;48.398;11.736;2023-12-14T07:43:56;10.80;;;9.70;;
12267;SDS011;6196;48.398;11.736;2023-12-14T07:46:23;11.70;;;10.50;;
12267;SDS011;6196;48.398;11.736;2023-12-14T07:48:50;12.00;;;10.20;;
12267;SDS011;6196;48.398;11.736;2023-12-14T07:51:17;10.80;;;9.70;;
12267;SDS011;6196;48.398;11.736;2023-12-14T07:53:44;11.27;;;10.03;;
12267;SDS011;6196;48.398;11.736;2023-12-14T07:56:12;11.60;;;10.40;;
12267;SDS011;6196;48.398;11.736;2023-12-14T07:58:39;11.40;;;10.20;;
12267;SDS011;6196;48.398;11.736;2023-12-14T08:01:06;11.53;;;10.17;;
12267;SDS011;6196;48.398;11.736;2023-12-14T08:03:34;10.53;;;9.43;;
12267;SDS011;6196;48.398;11.736;2023-12-14T08:06:02;10.83;;;9.17;;
12267;SDS011;6196;48.398;11.736;2023-12-14T08:08:29;11.30;;;9.93;;
12267;SDS011;6196;48.398;11.736;2023-12-14T08:10:56;10.47;;;9.33;;
12267;SDS011;6196;48.398;11.736;2023-12-14T08:13:23;13.20;;;9.43;;
12267;SDS011;6196;48.398;11.736;2023-12-14T08:15:50;10.17;;;8.97;;
12267;SDS011;6196;48.398;11.736;2023-12-14T08:18:17;9.87;;;8.87;;
12267;SDS011;6196;48.398;11.736;2023-12-14T08:20:44;10.27;;;8.63;;
12267;SDS011;6196;48.398;11.736;2023-12-14T08:23:11;10.07;;;8.97;;
12267;SDS011;6196;48.398;11.736;2023-12-14T08:25:38;10.57;;;9.40;;
12267;SDS011;6196;48.398;11.736;2023-12-14T08:28:05;10.87;;;8.70;;
12267;SDS011;6196;48.398;11.736;2023-12-14T08:30:32;12.43;;;8.50;;
12267;SDS011;6196;48.398;11.736;2023-12-14T08:32:59;10.93;;;8.23;;
12267;SDS011;6196;48.398;11.736;2023-12-14T08:35:26;11.37;;;8.57;;
12267;SDS011;6196;48.398;11.736;2023-12-14T08:37:53;9.77;;;8.00;;
12267;SDS011;6196;48.398;11.736;2023-12-14T08:40:20;8.73;;;7.83;;
12267;SDS011;6196;48.398;11.736;2023-12-14T08:42:47;9.67;;;7.90;;
12267;SDS011;6196;48.398;11.736;2023-12-14T08:45:14;9.07;;;7.47;;
12267;SDS011;6196;48.398;11.736;2023-12-14T08:47:41;9.60;;;7.33;;
12267;SDS011;6196;48.398;11.736;2023-12-14T08:50:09;9.43;;;7.00;;
12267;SDS011;6196;48.398;11.736;2023-12-14T08:52:36;7.77;;;6.77;;
12267;SDS011;6196;48.398;11.736;2023-12-14T08:55:04;7.67;;;6.30;;
12267;SDS011;6196;48.398;11.736;2023-12-14T08:57:32;7.23;;;6.23;;
12267;SDS011;6196;48.398;11.736;2023-12-14T08:59:59;9.03;;;7.13;;
12267;SDS011;6196;48.398;11.736;2023-12-14T09:02:26;7.10;;;6.37;;
12267;SDS011;6196;48.398;11.736;2023-12-14T09:04:53;8.10;;;6.60;;
12267;SDS011;6196;48.398;11.736;2023-12-14T09:07:20;8.57;;;6.53;;
12267;SDS011;6196;48.398;11.736;2023-12-14T09:09:47;7.47;;;6.67;;
12267;SDS011;6196;48.398;11.736;2023-12-14T09:12:14;7.90;;;6.57;;
12267;SDS011;6196;48.398;11.736;2023-12-14T09:14:41;7.87;;;6.63;;
12267;SDS011;6196;48.398;11.736;2023-12-14T09:17:08;8.00;;;6.70;;
12267;SDS011;6196;48.398;11.736;2023-12-14T09:19:35;7.67;;;6.00;;
12267;SDS011;6196;48.398;11.736;2023-12-14T09:22:02;6.93;;;6.20;;
12267;SDS011;6196;48.398;11.736;2023-12-14T09:24:29;7.37;;;5.90;;
12267;SDS011;6196;48.398;11.736;2023-12-14T09:26:56;6.67;;;5.87;;
12267;SDS011;6196;48.398;11.736;2023-12-14T09:29:23;6.10;;;5.50;;
12267;SDS011;6196;48.398;11.736;2023-12-14T09:31:50;7.10;;;5.50;;
12267;SDS011;6196;48.398;11.736;2023-12-14T09:34:17;7.47;;;6.00;;
12267;SDS011;6196;48.398;11.736;2023-12-14T09:36:44;6.47;;;5.73;;
12267;SDS011;6196;48.398;11.736;2023-12-14T09:39:11;5.73;;;5.20;;
12267;SDS011;6196;48.398;11.736;2023-12-14T09:41:39;7.17;;;5.20;;
12267;SDS011;6196;48.398;11.736;2023-12-14T09:44:06;5.63;;;5.13;;
12267;SDS011;6196;48.398;11.736;2023-12-14T09:46:34;6.40;;;5.00;;
12267;SDS011;6196;48.398;11.736;2023-12-14T09:49:03;6.40;;;5.10;;
12267;SDS011;6196;48.398;11.736;2023-12-14T09:51:34;5.80;;;4.83;;
12267;SDS011;6196;48.398;11.736;2023-12-14T09:54:01;5.47;;;4.80;;
12267;SDS011;6196;48.398;11.736;2023-12-14T09:56:29;5.27;;;4.77;;
12267;SDS011;6196;48.398;11.736;2023-12-14T09:58:56;5.13;;;4.63;;
12267;SDS011;6196;48.398;11.736;2023-12-14T10:01:25;5.50;;;4.57;;
12267;SDS011;6196;48.398;11.736;2023-12-14T10:04:06;4.97;;;4.10;;
12267;SDS011;6196;48.398;11.736;2023-12-14T10:06:51;4.60;;;3.77;;
12267;SDS011;6196;48.398;11.736;2023-12-14T10:09:22;4.20;;;3.60;;
12267;SDS011;6196;48.398;11.736;2023-12-14T10:11:49;4.00;;;3.40;;
12267;SDS011;6196;48.398;11.736;2023-12-14T10:14:34;4.33;;;3.67;;
12267;SDS011;6196;48.398;11.736;2023-12-14T10:17:16;4.40;;;4.00;;
12267;SDS011;6196;48.398;11.736;2023-12-14T10:19:46;4.57;;;3.83;;
12267;SDS011;6196;48.398;11.736;2023-12-14T10:22:15;4.13;;;3.73;;
12267;SDS011;6196;48.398;11.736;2023-12-14T10:24:44;4.10;;;3.70;;
12267;SDS011;6196;48.398;11.736;2023-12-14T10:27:16;4.80;;;4.20;;
12267;SDS011;6196;48.398;11.736;2023-12-14T10:29:43;4.20;;;3.33;;
12267;SDS011;6196;48.398;11.736;2023-12-14T10:32:12;4.57;;;3.37;;
12267;SDS011;6196;48.398;11.736;2023-12-14T10:34:40;3.57;;;3.23;;
12267;SDS011;6196;48.398;11.736;2023-12-14T10:37:08;3.13;;;2.83;;
12267;SDS011;6196;48.398;11.736;2023-12-14T10:39:36;3.30;;;2.33;;
12267;SDS011;6196;48.398;11.736;2023-12-14T10:42:07;3.27;;;2.50;;
12267;SDS011;6196;48.398;11.736;2023-12-14T10:44:45;2.23;;;2.03;;
12267;SDS011;6196;48.398;11.736;2023-12-14T10:47:35;1.90;;;1.80;;
12267;SDS011;6196;48.398;11.736;2023-12-14T10:50:04;2.07;;;1.70;;
12267;SDS011;6196;48.398;11.736;2023-12-14T10:52:32;2.30;;;2.10;;
12267;SDS011;6196;48.398;11.736;2023-12-14T10:55:02;2.00;;;1.90;;
12267;SDS011;6196;48.398;11.736;2023-12-14T10:57:39;2.73;;;1.90;;
12267;SDS011;6196;48.398;11.736;2023-12-14T11:00:09;1.90;;;1.77;;
12267;SDS011;6196;48.398;11.736;2023-12-14T11:02:41;2.50;;;2.30;;
12267;SDS011;6196;48.398;11.736;2023-12-14T11:05:12;2.67;;;2.37;;
12267;SDS011;6196;48.398;11.736;2023-12-14T11:07:50;2.30;;;2.00;;
12267;SDS011;6196;48.398;11.736;2023-12-14T11:10:22;2.33;;;2.10;;
12267;SDS011;6196;48.398;11.736;2023-12-14T11:13:06;2.53;;;2.30;;
12267;SDS011;6196;48.398;11.736;2023-12-14T11:15:40;3.97;;;2.43;;
12267;SDS011;6196;48.398;11.736;2023-12-14T11:20:53;2.37;;;2.13;;
12267;SDS011;6196;48.398;11.736;2023-12-14T11:26:10;3.50;;;2.70;;
12267;SDS011;6196;48.398;11.736;2023-12-14T11:28:40;2.87;;;2.60;;
12267;SDS011;6196;48.398;11.736;2023-12-14T11:31:10;3.93;;;2.73;;
12267;SDS011;6196;48.398;11.736;2023-12-14T11:33:39;2.57;;;2.37;;
12267;SDS011;6196;48.398;11.736;2023-12-14T11:36:11;2.60;;;2.33;;
12267;SDS011;6196;48.398;11.736;2023-12-14T11:38:39;3.57;;;2.37;;
12267;SDS011;6196;48.398;11.736;2023-12-14T11:41:06;2.53;;;2.33;;
12267;SDS011;6196;48.398;11.736;2023-12-14T11:43:43;2.73;;;2.43;;
12267;SDS011;6196;48.398;11.736;2023-12-14T11:46:11;3.10;;;2.30;;
12267;SDS011;6196;48.398;11.736;2023-12-14T11:48:38;3.23;;;2.60;;
12267;SDS011;6196;48.398;11.736;2023-12-14T11:51:06;3.73;;;2.73;;
12267;SDS011;6196;48.398;11.736;2023-12-14T11:53:33;2.67;;;2.23;;
12267;SDS011;6196;48.398;11.736;2023-12-14T11:56:05;4.13;;;2.80;;
12267;SDS011;6196;48.398;11.736;2023-12-14T11:58:32;4.67;;;2.83;;
12267;SDS011;6196;48.398;11.736;2023-12-14T12:01:16;5.20;;;3.03;;
12267;SDS011;6196;48.398;11.736;2023-12-14T12:03:45;4.07;;;3.37;;
12267;SDS011;6196;48.398;11.736;2023-12-14T12:06:25;3.70;;;3.30;;
12267;SDS011;6196;48.398;11.736;2023-12-14T12:08:54;3.50;;;3.00;;
12267;SDS011;6196;48.398;11.736;2023-12-14T12:11:22;4.47;;;3.17;;
12267;SDS011;6196;48.398;11.736;2023-12-14T12:13:52;3.40;;;3.10;;
12267;SDS011;6196;48.398;11.736;2023-12-14T12:16:21;3.20;;;2.90;;
12267;SDS011;6196;48.398;11.736;2023-12-14T12:18:49;3.80;;;3.03;;
12267;SDS011;6196;48.398;11.736;2023-12-14T12:21:18;5.17;;;3.30;;
12267;SDS011;6196;48.398;11.736;2023-12-14T12:23:45;3.83;;;3.20;;
12267;SDS011;6196;48.398;11.736;2023-12-14T12:26:12;4.77;;;3.17;;
12267;SDS011;6196;48.398;11.736;2023-12-14T12:28:41;3.30;;;3.00;;
12267;SDS011;6196;48.398;11.736;2023-12-14T12:31:08;3.73;;;3.30;;
12267;SDS011;6196;48.398;11.736;2023-12-14T12:33:35;3.50;;;3.00;;
12267;SDS011;6196;48.398;11.736;2023-12-14T12:36:04;4.20;;;2.97;;
12267;SDS011;6196;48.398;11.736;2023-12-14T12:38:32;4.40;;;2.97;;
12267;SDS011;6196;48.398;11.736;2023-12-14T12:41:00;4.47;;;3.17;;
12267;SDS011;6196;48.398;11.736;2023-12-14T12:43:27;5.37;;;2.73;;
12267;SDS011;6196;48.398;11.736;2023-12-14T12:45:54;2.90;;;2.70;;
12267;SDS011;6196;48.398;11.736;2023-12-14T12:48:21;3.07;;;2.40;;
12267;SDS011;6196;48.398;11.736;2023-12-14T12:50:52;3.00;;;2.73;;
12267;SDS011;6196;48.398;11.736;2023-12-14T12:53:19;6.87;;;3.03;;
12267;SDS011;6196;48.398;11.736;2023-12-14T12:55:46;3.90;;;2.97;;
12267;SDS011;6196;48.398;11.736;2023-12-14T12:58:13;4.60;;;2.90;;
12267;SDS011;6196;48.398;11.736;2023-12-14T13:00:41;4.07;;;2.80;;
12267;SDS011;6196;48.398;11.736;2023-12-14T13:03:08;3.20;;;2.60;;
12267;SDS011;6196;48.398;11.736;2023-12-14T13:05:36;3.57;;;2.70;;
12267;SDS011;6196;48.398;11.736;2023-12-14T13:08:03;4.17;;;2.70;;
12267;SDS011;6196;48.398;11.736;2023-12-14T13:10:30;5.67;;;2.50;;
12267;SDS011;6196;48.398;11.736;2023-12-14T13:12:58;4.33;;;2.40;;
12267;SDS011;6196;48.398;11.736;2023-12-14T13:15:26;3.00;;;2.73;;
12267;SDS011;6196;48.398;11.736;2023-12-14T13:17:55;4.60;;;2.83;;
12267;SDS011;6196;48.398;11.736;2023-12-14T13:20:23;4.13;;;2.63;;
12267;SDS011;6196;48.398;11.736;2023-12-14T13:22:50;6.00;;;3.37;;
12267;SDS011;6196;48.398;11.736;2023-12-14T13:25:18;4.07;;;2.73;;
12267;SDS011;6196;48.398;11.736;2023-12-14T13:27:46;4.13;;;2.80;;
12267;SDS011;6196;48.398;11.736;2023-12-14T13:30:13;4.20;;;2.87;;
12267;SDS011;6196;48.398;11.736;2023-12-14T13:32:44;4.07;;;2.67;;
12267;SDS011;6196;48.398;11.736;2023-12-14T13:35:12;2.97;;;2.40;;
12267;SDS011;6196;48.398;11.736;2023-12-14T13:37:39;3.60;;;2.70;;
12267;SDS011;6196;48.398;11.736;2023-12-14T13:40:06;3.60;;;2.73;;
12267;SDS011;6196;48.398;11.736;2023-12-14T13:42:36;3.70;;;2.53;;
12267;SDS011;6196;48.398;11.736;2023-12-14T13:45:15;2.70;;;2.40;;
12267;SDS011;6196;48.398;11.736;2023-12-14T13:47:52;3.33;;;2.87;;
12267;SDS011;6196;48.398;11.736;2023-12-14T13:50:19;5.00;;;3.00;;
12267;SDS011;6196;48.398;11.736;2023-12-14T13:52:46;6.03;;;2.90;;
12267;SDS011;6196;48.398;11.736;2023-12-14T13:55:12;2.63;;;2.43;;
12267;SDS011;6196;48.398;11.736;2023-12-14T13:57:39;4.10;;;2.60;;
12267;SDS011;6196;48.398;11.736;2023-12-14T14:00:07;4.73;;;2.67;;
12267;SDS011;6196;48.398;11.736;2023-12-14T14:02:35;4.80;;;2.63;;
12267;SDS011;6196;48.398;11.736;2023-12-14T14:05:02;3.87;;;2.57;;
12267;SDS011;6196;48.398;11.736;2023-12-14T14:07:30;3.50;;;2.70;;
12267;SDS011;6196;48.398;11.736;2023-12-14T14:09:58;3.03;;;2.73;;
12267;SDS011;6196;48.398;11.736;2023-12-14T14:12:25;3.97;;;2.73;;
12267;SDS011;6196;48.398;11.736;2023-12-14T14:14:52;3.90;;;2.90;;
12267;SDS011;6196;48.398;11.736;2023-12-14T14:17:19;3.40;;;2.57;;
12267;SDS011;6196;48.398;11.736;2023-12-14T14:19:46;3.93;;;2.70;;
12267;SDS011;6196;48.398;11.736;2023-12-14T14:22:13;4.17;;;3.37;;
12267;SDS011;6196;48.398;11.736;2023-12-14T14:24:40;4.70;;;3.83;;
12267;SDS011;6196;48.398;11.736;2023-12-14T14:27:07;5.37;;;3.83;;
12267;SDS011;6196;48.398;11.736;2023-12-14T14:29:34;4.07;;;3.60;;
12267;SDS011;6196;48.398;11.736;2023-12-14T14:32:01;3.83;;;3.53;;
12267;SDS011;6196;48.398;11.736;2023-12-14T14:34:28;5.40;;;3.80;;
12267;SDS011;6196;48.398;11.736;2023-12-14T14:36:56;4.33;;;3.93;;
12267;SDS011;6196;48.398;11.736;2023-12-14T14:39:23;4.13;;;3.83;;
12267;SDS011;6196;48.398;11.736;2023-12-14T14:41:50;4.77;;;4.03;;
12267;SDS011;6196;48.398;11.736;2023-12-14T14:44:17;3.63;;;3.33;;
12267;SDS011;6196;48.398;11.736;2023-12-14T14:46:44;4.47;;;3.77;;
12267;SDS011;6196;48.398;11.736;2023-12-14T14:49:11;5.90;;;3.90;;
12267;SDS011;6196;48.398;11.736;2023-12-14T14:51:38;5.50;;;3.87;;
12267;SDS011;6196;48.398;11.736;2023-12-14T14:54:05;5.17;;;4.50;;
12267;SDS011;6196;48.398;11.736;2023-12-14T14:56:32;5.83;;;4.10;;
12267;SDS011;6196;48.398;11.736;2023-12-14T14:58:59;5.07;;;3.30;;